createdAt,value
2023-01-22T00:01:28.608Z,99829.91
2023-01-22T00:03:55.504Z,99840.44
2023-01-22T00:06:23.300Z,99836.47
2023-01-22T00:08:51.234Z,99840.25
2023-01-22T00:11:20.707Z,99830.09
2023-01-22T00:13:47.497Z,99834.25
2023-01-22T00:16:16.852Z,99829.69
2023-01-22T00:18:44.928Z,99823.91
2023-01-22T00:21:12.585Z,99830.31
2023-01-22T00:23:40.178Z,99831.88
2023-01-22T00:26:14.434Z,99831.28
2023-01-22T00:28:49.491Z,99833.31
2023-01-22T00:31:18.154Z,99836.69
2023-01-22T00:33:46.995Z,99840.06
2023-01-22T00:36:19.919Z,99837.69
2023-01-22T00:39:11.810Z,99838.69
2023-01-22T00:41:39.923Z,99830.94
2023-01-22T00:44:07.492Z,99832.72
2023-01-22T00:46:34.955Z,99838.50
2023-01-22T00:49:04.993Z,99831.16
2023-01-22T00:51:31.775Z,99837.69
2023-01-22T00:53:58.683Z,99840.06
2023-01-22T00:56:25.492Z,99844.22
2023-01-22T00:58:54.459Z,99843.66
2023-01-22T01:01:21.284Z,99855.56
2023-01-22T01:03:48.046Z,99860.97
2023-01-22T01:06:21.699Z,99853.22
2023-01-22T01:08:50.756Z,99854.00
2023-01-22T01:11:21.530Z,99860.75
2023-01-22T01:13:50.616Z,99873.66
2023-01-22T01:16:29.694Z,99874.25
2023-01-22T01:19:08.343Z,99881.78
2023-01-22T01:22:02.456Z,99878.56
2023-01-22T01:24:30.057Z,99873.84
2023-01-22T01:26:57.487Z,99875.19
2023-01-22T01:29:26.051Z,99866.88
2023-01-22T01:31:53.545Z,99874.63
2023-01-22T01:34:24.038Z,99885.75
2023-01-22T01:36:55.553Z,99900.25
2023-01-22T01:39:22.438Z,99909.19
2023-01-22T01:41:50.057Z,99896.84
2023-01-22T01:44:23.549Z,99889.66
2023-01-22T01:47:00.248Z,99870.63
2023-01-22T01:49:39.478Z,99864.06
2023-01-22T01:52:13.085Z,99859.91
2023-01-22T01:54:48.526Z,99863.00
2023-01-22T01:57:21.263Z,99863.66
2023-01-22T01:59:52.623Z,99867.03
2023-01-22T02:02:21.193Z,99866.66
2023-01-22T02:04:52.511Z,99866.25
2023-01-22T02:07:21.011Z,99868.03
2023-01-22T02:09:47.938Z,99870.63
2023-01-22T02:12:19.706Z,99864.84
2023-01-22T02:14:50.251Z,99869.03
2023-01-22T02:17:23.063Z,99865.44
2023-01-22T02:19:53.048Z,99868.59
2023-01-22T02:22:24.691Z,99862.44
2023-01-22T02:24:52.187Z,99857.47
2023-01-22T02:27:19.298Z,99855.31
2023-01-22T02:30:12.530Z,99856.53
2023-01-22T02:32:40.143Z,99863.91
2023-01-22T02:35:07.405Z,99871.03
2023-01-22T02:37:38.174Z,99864.28
2023-01-22T02:40:07.692Z,99874.63
2023-01-22T02:42:36.299Z,99865.66
2023-01-22T02:45:04.599Z,99866.09
2023-01-22T02:47:31.446Z,99873.47
2023-01-22T02:49:59.050Z,99879.81
2023-01-22T02:52:25.916Z,99885.34
2023-01-22T02:54:52.712Z,99878.19
2023-01-22T03:00:12.605Z,99866.66
2023-01-22T03:02:40.772Z,99870.03
2023-01-22T03:05:07.763Z,99861.84
2023-01-22T03:07:37.607Z,99846.19
2023-01-22T03:10:05.443Z,99845.19
2023-01-22T03:12:33.162Z,99860.56
2023-01-22T03:15:03.293Z,99859.53
2023-01-22T03:17:31.031Z,99853.59
2023-01-22T03:19:59.560Z,99853.59
2023-01-22T03:22:26.751Z,99844.22
2023-01-22T03:24:54.225Z,99852.34
2023-01-22T03:27:27.719Z,99848.19
2023-01-22T03:29:55.373Z,99845.41
2023-01-22T03:32:22.929Z,99846.19
2023-01-22T03:35:15.616Z,99842.00
2023-01-22T03:38:00.607Z,99842.38
2023-01-22T03:40:27.837Z,99850.34
2023-01-22T03:42:55.057Z,99852.72
2023-01-22T03:45:21.919Z,99861.72
2023-01-22T03:47:50.645Z,99865.28
2023-01-22T03:50:26.437Z,99854.75
2023-01-22T03:52:55.847Z,99858.75
2023-01-22T03:55:22.684Z,99865.50
2023-01-22T03:57:49.876Z,99861.34
2023-01-22T04:00:18.044Z,99863.31
2023-01-22T04:02:45.201Z,99868.88
2023-01-22T04:05:23.388Z,99858.38
2023-01-22T04:07:51.309Z,99858.75
2023-01-22T04:10:22.161Z,99861.38
2023-01-22T04:12:50.639Z,99867.34
2023-01-22T04:15:20.691Z,99863.56
2023-01-22T04:17:49.548Z,99866.50
2023-01-22T04:20:42.919Z,99851.97
2023-01-22T04:23:35.077Z,99849.97
2023-01-22T04:26:02.783Z,99845.81
2023-01-22T04:28:30.618Z,99857.16
2023-01-22T04:30:59.278Z,99848.41
2023-01-22T04:33:38.522Z,99855.56
2023-01-22T04:36:10.210Z,99859.53
2023-01-22T04:38:39.535Z,99850.22
2023-01-22T04:41:06.445Z,99860.09
2023-01-22T04:43:33.535Z,99846.03
2023-01-22T04:46:04.224Z,99858.16
2023-01-22T04:48:34.616Z,99864.34
2023-01-22T04:51:26.459Z,99866.91
2023-01-22T04:53:57.620Z,99866.28
2023-01-22T04:56:49.698Z,99860.75
2023-01-22T04:59:20.663Z,99861.53
2023-01-22T05:01:47.655Z,99856.34
2023-01-22T05:04:14.469Z,99857.59
2023-01-22T05:06:41.614Z,99862.53
2023-01-22T05:09:09.198Z,99868.31
2023-01-22T05:11:51.662Z,99872.66
2023-01-22T05:14:20.347Z,99875.63
2023-01-22T05:16:48.916Z,99877.59
2023-01-22T05:22:32.636Z,99884.75
2023-01-22T05:24:59.678Z,99892.50
2023-01-22T05:27:27.824Z,99886.69
2023-01-22T05:30:13.455Z,99893.47
2023-01-22T05:32:56.668Z,99893.09
2023-01-22T05:35:25.774Z,99893.66
2023-01-22T05:37:56.654Z,99896.06
2023-01-22T05:40:24.320Z,99899.25
2023-01-22T05:42:52.648Z,99899.25
2023-01-22T05:45:21.112Z,99905.25
2023-01-22T05:48:23.494Z,99910.41
2023-01-22T05:51:08.598Z,99911.66
2023-01-22T05:53:38.819Z,99910.09
2023-01-22T05:56:06.606Z,99906.50
2023-01-22T05:58:38.552Z,99911.66
2023-01-22T06:01:06.879Z,99909.06
2023-01-22T06:03:45.940Z,99904.50
2023-01-22T06:06:16.925Z,99906.72
2023-01-22T06:08:46.610Z,99914.63
2023-01-22T06:11:17.014Z,99910.88
2023-01-22T06:13:47.562Z,99910.09
2023-01-22T06:16:22.053Z,99908.47
2023-01-22T06:19:11.602Z,99916.44
2023-01-22T06:21:53.446Z,99915.25
2023-01-22T06:24:26.243Z,99913.28
2023-01-22T06:26:53.027Z,99922.63
2023-01-22T06:29:21.407Z,99914.09
2023-01-22T06:31:48.341Z,99921.03
2023-01-22T06:34:18.295Z,99913.28
2023-01-22T06:36:45.901Z,99911.28
2023-01-22T06:39:15.162Z,99922.03
2023-01-22T06:41:56.922Z,99914.13
2023-01-22T06:44:23.885Z,99919.66
2023-01-22T06:46:52.540Z,99923.59
2023-01-22T06:49:26.991Z,99916.13
2023-01-22T06:51:54.877Z,99917.13
2023-01-22T06:54:23.058Z,99914.53
2023-01-22T06:56:51.687Z,99923.47
2023-01-22T06:59:21.927Z,99930.19
2023-01-22T07:01:49.734Z,99925.03
2023-01-22T07:04:16.554Z,99927.03
2023-01-22T07:06:43.701Z,99920.28
2023-01-22T07:09:10.526Z,99938.19
2023-01-22T07:11:37.438Z,99926.66
2023-01-22T07:14:04.275Z,99930.41
2023-01-22T07:16:31.215Z,99934.00
2023-01-22T07:18:58.001Z,99939.59
2023-01-22T07:21:26.690Z,99938.81
2023-01-22T07:23:54.211Z,99942.38
2023-01-22T07:26:21.107Z,99939.78
2023-01-22T07:28:49.658Z,99947.53
2023-01-22T07:31:16.473Z,99948.13
2023-01-22T07:33:44.084Z,99955.47
2023-01-22T07:36:11.683Z,99960.28
2023-01-22T07:38:39.905Z,99956.06
2023-01-22T07:41:20.275Z,99960.28
2023-01-22T07:43:52.953Z,99965.84
2023-01-22T07:46:19.788Z,99968.06
2023-01-22T07:48:46.671Z,99970.22
2023-01-22T07:51:13.781Z,99969.59
2023-01-22T07:53:40.665Z,99967.44
2023-01-22T07:56:08.828Z,99975.97
2023-01-22T07:58:36.415Z,99976.97
2023-01-22T08:01:07.592Z,99975.81
2023-01-22T08:03:35.363Z,99973.00
2023-01-22T08:06:12.412Z,99977.97
2023-01-22T08:08:40.672Z,99981.72
2023-01-22T08:11:09.704Z,99978.94
2023-01-22T08:13:36.457Z,99981.09
2023-01-22T08:16:07.764Z,99988.28
2023-01-22T08:18:34.890Z,99987.47
2023-01-22T08:21:02.646Z,99984.09
2023-01-22T08:26:23.496Z,99993.66
2023-01-22T08:28:50.271Z,99993.66
2023-01-22T08:31:27.435Z,99997.25
2023-01-22T08:34:00.757Z,99997.25
2023-01-22T08:36:28.486Z,99999.41
2023-01-22T08:38:55.898Z,100002.75
2023-01-22T08:41:24.668Z,99993.84
2023-01-22T08:43:52.865Z,100004.19
2023-01-22T08:46:19.897Z,100001.38
2023-01-22T08:48:47.209Z,100002.78
2023-01-22T08:51:17.731Z,100008.53
2023-01-22T08:54:09.659Z,100007.97
2023-01-22T08:57:01.739Z,100015.50
2023-01-22T08:59:31.097Z,100012.91
2023-01-22T09:01:59.674Z,100018.69
2023-01-22T09:04:27.267Z,100021.25
2023-01-22T09:06:54.349Z,100019.25
2023-01-22T09:09:21.792Z,100024.63
2023-01-22T09:11:49.288Z,100027.00
2023-01-22T09:14:16.152Z,100037.94
2023-01-22T09:16:44.453Z,100038.72
2023-01-22T09:19:12.790Z,100033.94
2023-01-22T09:21:40.025Z,100035.75
2023-01-22T09:24:13.652Z,100037.13
2023-01-22T09:26:41.133Z,100035.75
2023-01-22T09:29:11.912Z,100039.13
2023-01-22T09:31:42.196Z,100044.09
2023-01-22T09:34:09.145Z,100039.13
2023-01-22T09:36:37.067Z,100034.53
2023-01-22T09:39:03.918Z,100042.69
2023-01-22T09:41:33.598Z,100041.28
2023-01-22T09:47:11.145Z,100038.88
2023-01-22T09:49:40.962Z,100036.88
2023-01-22T09:52:38.786Z,100043.44
2023-01-22T09:55:13.234Z,100032.69
2023-01-22T09:57:49.859Z,100041.66
2023-01-22T10:00:20.948Z,100046.06
2023-01-22T10:03:00.824Z,100049.28
2023-01-22T10:05:47.144Z,100050.81
2023-01-22T10:08:21.430Z,100050.78
2023-01-22T10:10:49.508Z,100059.69
2023-01-22T10:13:21.845Z,100057.50
2023-01-22T10:15:53.026Z,100059.88
2023-01-22T10:18:32.897Z,100067.44
2023-01-22T10:21:04.790Z,100065.44
2023-01-22T10:23:35.328Z,100064.22
2023-01-22T10:26:34.540Z,100067.19
2023-01-22T10:29:08.752Z,100063.03
2023-01-22T10:31:39.253Z,100072.00
2023-01-22T10:34:35.083Z,100070.81
2023-01-22T10:37:13.646Z,100070.59
2023-01-22T10:39:48.267Z,100064.22
2023-01-22T10:42:21.439Z,100072.53
2023-01-22T10:44:55.755Z,100073.38
2023-01-22T10:47:25.391Z,100065.66
2023-01-22T10:50:18.149Z,100071.63
2023-01-22T10:52:53.425Z,100072.00
2023-01-22T10:55:26.899Z,100069.78
2023-01-22T10:58:01.091Z,100074.34
2023-01-22T11:00:50.315Z,100071.75
2023-01-22T11:03:29.829Z,100073.13
2023-01-22T11:06:06.754Z,100069.34
2023-01-22T11:09:03.927Z,100067.91
2023-01-22T11:11:42.786Z,100072.03
2023-01-22T11:14:23.508Z,100066.03
2023-01-22T11:16:58.881Z,100069.16
2023-01-22T11:19:37.487Z,100061.16
2023-01-22T11:22:22.729Z,100071.69
2023-01-22T11:24:49.668Z,100073.09
2023-01-22T11:27:57.653Z,100073.09
2023-01-22T11:30:53.377Z,100067.50
2023-01-22T11:36:27.863Z,100058.50
2023-01-22T11:40:07.691Z,100062.09
2023-01-22T11:42:40.769Z,100059.28
2023-01-22T11:45:22.960Z,100065.03
2023-01-22T11:48:10.728Z,100057.66
2023-01-22T11:51:06.777Z,100063.06
2023-01-22T11:57:01.940Z,100068.78
2023-01-22T11:59:50.204Z,100072.19
2023-01-22T12:02:32.844Z,100063.63
2023-01-22T12:05:17.151Z,100066.22
2023-01-22T12:08:02.796Z,100068.59
2023-01-22T12:11:11.952Z,100068.16
2023-01-22T12:14:10.801Z,100064.00
2023-01-22T12:16:50.488Z,100078.09
2023-01-22T12:19:39.383Z,100075.50
2023-01-22T12:22:26.254Z,100077.09
2023-01-22T12:25:11.748Z,100078.31
2023-01-22T12:27:51.094Z,100079.09
2023-01-22T12:30:34.221Z,100079.69
2023-01-22T12:33:36.127Z,100074.16
2023-01-22T12:36:05.908Z,100079.09
2023-01-22T12:38:57.426Z,100079.47
2023-01-22T12:41:49.203Z,100074.94
2023-01-22T12:44:49.387Z,100091.25
2023-01-22T12:47:50.154Z,100093.06
2023-01-22T12:50:21.993Z,100092.84
2023-01-22T12:53:21.770Z,100092.78
2023-01-22T12:56:00.952Z,100099.56
2023-01-22T12:58:57.389Z,100105.50
2023-01-22T13:01:33.468Z,100099.91
2023-01-22T13:04:06.809Z,100105.69
2023-01-22T13:06:35.999Z,100109.91
2023-01-22T13:09:05.799Z,100120.50
2023-01-22T13:11:39.883Z,100113.38
2023-01-22T13:14:19.006Z,100117.53
2023-01-22T13:17:17.581Z,100121.13
2023-01-22T13:25:32.244Z,100122.53
2023-01-22T13:28:01.595Z,100128.34
2023-01-22T13:30:30.149Z,100137.91
2023-01-22T13:33:05.535Z,100136.53
2023-01-22T13:35:38.161Z,100144.72
2023-01-22T13:38:05.367Z,100149.28
2023-01-22T13:40:42.795Z,100146.69
2023-01-22T13:43:20.513Z,100148.88
2023-01-22T13:45:48.047Z,100160.22
2023-01-22T13:48:18.724Z,100161.81
2023-01-22T13:50:54.648Z,100155.88
2023-01-22T13:53:43.537Z,100160.06
2023-01-22T13:56:16.727Z,100157.84
2023-01-22T13:58:48.802Z,100163.81
2023-01-22T14:01:31.563Z,100173.38
2023-01-22T14:04:09.891Z,100169.81
2023-01-22T14:06:45.916Z,100172.41
2023-01-22T14:09:13.826Z,100171.78
2023-01-22T14:11:41.918Z,100174.16
2023-01-22T14:14:24.220Z,100173.38
2023-01-22T14:16:52.687Z,100184.50
2023-01-22T14:19:20.499Z,100185.72
2023-01-22T14:21:48.185Z,100186.50
2023-01-22T14:24:16.580Z,100179.34
2023-01-22T14:26:47.838Z,100176.59
2023-01-22T14:32:06.973Z,100194.13
2023-01-22T14:34:34.827Z,100193.97
2023-01-22T14:37:03.730Z,100213.25
2023-01-22T14:39:37.860Z,100204.88
2023-01-22T14:42:06.734Z,100206.69
2023-01-22T14:44:36.606Z,100209.44
2023-01-22T14:47:04.949Z,100213.44
2023-01-22T14:49:32.914Z,100221.44
2023-01-22T14:52:00.252Z,100214.03
2023-01-22T14:54:53.034Z,100213.44
2023-01-22T14:57:21.211Z,100212.88
2023-01-22T14:59:48.604Z,100224.81
2023-01-22T15:02:18.259Z,100224.38
2023-01-22T15:04:46.273Z,100222.81
2023-01-22T15:07:15.147Z,100230.78
2023-01-22T15:09:45.358Z,100236.13
2023-01-22T15:12:12.481Z,100233.34
2023-01-22T15:17:30.550Z,100234.53
2023-01-22T15:20:00.716Z,100237.53
2023-01-22T15:22:27.898Z,100240.13
2023-01-22T15:24:56.878Z,100248.47
2023-01-22T15:27:23.670Z,100239.13
2023-01-22T15:29:52.846Z,100238.34
2023-01-22T15:32:20.576Z,100237.34
2023-01-22T15:34:48.924Z,100233.34
2023-01-22T15:37:16.809Z,100236.72
2023-01-22T15:39:48.155Z,100240.13
2023-01-22T15:42:15.651Z,100245.13
2023-01-22T15:44:43.384Z,100265.44
2023-01-22T15:47:12.856Z,100274.41
2023-01-22T15:49:41.893Z,100283.19
2023-01-22T15:52:09.428Z,100278.59
2023-01-22T15:54:37.963Z,100282.38
2023-01-22T15:57:07.140Z,100288.13
2023-01-22T15:59:38.764Z,100291.34
2023-01-22T16:02:07.811Z,100280.16
2023-01-22T16:04:35.261Z,100280.97
2023-01-22T16:10:20.773Z,100277.56
2023-01-22T16:12:48.978Z,100276.75
2023-01-22T16:15:16.541Z,100277.56
2023-01-22T16:17:48.026Z,100280.56
2023-01-22T16:20:22.006Z,100294.09
2023-01-22T16:22:51.109Z,100301.84
2023-01-22T16:25:18.188Z,100307.25
2023-01-22T16:27:46.662Z,100309.63
2023-01-22T16:30:16.868Z,100307.63
2023-01-22T16:32:45.043Z,100308.25
2023-01-22T16:35:13.110Z,100305.28
2023-01-22T16:37:44.038Z,100312.81
2023-01-22T16:40:16.015Z,100306.22
2023-01-22T16:43:11.630Z,100312.41
2023-01-22T16:45:41.201Z,100322.38
2023-01-22T16:48:09.134Z,100321.19
2023-01-22T16:50:37.822Z,100326.19
2023-01-22T16:53:30.398Z,100329.38
2023-01-22T16:56:00.226Z,100337.72
2023-01-22T16:58:27.419Z,100342.50
2023-01-22T17:00:55.985Z,100346.09
2023-01-22T17:03:24.307Z,100346.88
2023-01-22T17:05:52.207Z,100346.25
2023-01-22T17:08:21.238Z,100339.09
2023-01-22T17:10:51.076Z,100345.28
2023-01-22T17:13:20.358Z,100351.66
2023-01-22T17:15:47.591Z,100347.66
2023-01-22T17:18:15.925Z,100345.88
2023-01-22T17:20:57.462Z,100346.25
2023-01-22T17:23:33.329Z,100344.88
2023-01-22T17:26:10.791Z,100354.84
2023-01-22T17:28:39.402Z,100352.44
2023-01-22T17:31:08.731Z,100360.22
2023-01-22T17:33:37.587Z,100364.00
2023-01-22T17:36:07.131Z,100362.41
2023-01-22T17:38:38.618Z,100367.78
2023-01-22T17:41:13.063Z,100375.34
2023-01-22T17:43:43.306Z,100377.38
2023-01-22T17:46:17.748Z,100379.56
2023-01-22T17:49:13.595Z,100376.16
2023-01-22T17:51:47.408Z,100382.34
2023-01-22T17:54:16.603Z,100380.53
2023-01-22T17:56:44.421Z,100391.50
2023-01-22T17:59:16.331Z,100391.50
2023-01-22T18:01:47.474Z,100385.09
2023-01-22T18:04:15.916Z,100390.28
2023-01-22T18:07:10.286Z,100398.84
2023-01-22T18:09:38.097Z,100397.25
2023-01-22T18:12:06.426Z,100402.44
2023-01-22T18:14:37.258Z,100403.81
2023-01-22T18:17:05.276Z,100410.59
2023-01-22T18:19:32.355Z,100400.22
2023-01-22T18:21:59.682Z,100398.25
2023-01-22T18:24:36.669Z,100412.19
2023-01-22T18:27:04.726Z,100430.31
2023-01-22T18:29:32.340Z,100432.69
2023-01-22T18:32:01.389Z,100444.06
2023-01-22T18:34:30.340Z,100445.06
2023-01-22T18:37:01.081Z,100443.06
2023-01-22T18:39:33.971Z,100445.06
2023-01-22T18:42:01.727Z,100445.06
2023-01-22T18:44:31.231Z,100448.22
2023-01-22T18:46:58.960Z,100455.81
2023-01-22T18:49:26.410Z,100456.22
2023-01-22T18:51:55.252Z,100455.59
2023-01-22T18:54:47.612Z,100449.63
2023-01-22T19:00:09.762Z,100451.59
2023-01-22T19:02:38.233Z,100449.03
2023-01-22T19:05:06.124Z,100449.63
2023-01-22T19:07:33.984Z,100449.22
2023-01-22T19:10:01.750Z,100455.81
2023-01-22T19:12:29.935Z,100450.25
2023-01-22T19:15:02.771Z,100455.81
2023-01-22T19:17:30.504Z,100451.22
2023-01-22T19:19:58.012Z,100453.78
2023-01-22T19:22:26.864Z,100458.00
2023-01-22T19:25:20.114Z,100466.56
2023-01-22T19:27:53.956Z,100467.13
2023-01-22T19:30:23.142Z,100469.34
2023-01-22T19:32:56.905Z,100473.72
2023-01-22T19:35:25.348Z,100476.31
2023-01-22T19:37:52.686Z,100471.53
2023-01-22T19:40:21.890Z,100463.38
2023-01-22T19:42:49.727Z,100465.78
2023-01-22T19:45:18.061Z,100472.31
2023-01-22T19:47:46.516Z,100468.94
2023-01-22T19:50:17.874Z,100471.34
2023-01-22T19:52:47.378Z,100479.09
2023-01-22T19:55:16.759Z,100483.69
2023-01-22T19:57:45.863Z,100483.06
2023-01-22T20:00:16.179Z,100488.06
2023-01-22T20:02:46.120Z,100489.25
2023-01-22T20:05:16.322Z,100493.63
2023-01-22T20:07:45.550Z,100505.97
2023-01-22T20:10:13.955Z,100519.91
2023-01-22T20:12:45.179Z,100523.28
2023-01-22T20:15:16.363Z,100531.06
2023-01-22T20:17:44.922Z,100530.66
2023-01-22T20:20:12.976Z,100532.66
2023-01-22T20:22:43.111Z,100532.88
2023-01-22T20:25:12.075Z,100523.91
2023-01-22T20:27:40.137Z,100518.72
2023-01-22T20:30:09.996Z,100522.91
2023-01-22T20:32:38.377Z,100530.88
2023-01-22T20:35:06.503Z,100535.06
2023-01-22T20:38:01.919Z,100541.03
2023-01-22T20:40:30.760Z,100539.03
2023-01-22T20:42:59.798Z,100534.06
2023-01-22T20:45:27.885Z,100542.81
2023-01-22T20:47:56.769Z,100553.78
2023-01-22T20:50:26.422Z,100551.59
2023-01-22T20:52:53.950Z,100555.53
2023-01-22T20:55:25.060Z,100568.09
2023-01-22T20:57:53.330Z,100554.75
2023-01-22T21:00:22.503Z,100541.03
2023-01-22T21:03:15.482Z,100531.47
2023-01-22T21:05:47.605Z,100545.59
2023-01-22T21:08:17.181Z,100543.84
2023-01-22T21:10:55.301Z,100534.66
2023-01-22T21:13:23.292Z,100532.47
2023-01-22T21:15:52.191Z,100527.69
2023-01-22T21:18:21.854Z,100536.84
2023-01-22T21:20:51.040Z,100545.59
2023-01-22T21:23:18.855Z,100552.56
2023-01-22T21:25:46.366Z,100564.53
2023-01-22T21:28:38.803Z,100559.53
2023-01-22T21:31:13.042Z,100567.13
2023-01-22T21:33:41.881Z,100571.31
2023-01-22T21:36:10.532Z,100572.09
2023-01-22T21:38:39.355Z,100574.06
2023-01-22T21:41:08.952Z,100573.09
2023-01-22T21:43:38.745Z,100587.03
2023-01-22T21:46:06.268Z,100591.63
2023-01-22T21:48:34.523Z,100596.97
2023-01-22T21:51:02.715Z,100587.63
2023-01-22T21:53:34.406Z,100596.00
2023-01-22T21:56:02.476Z,100598.19
2023-01-22T21:58:29.268Z,100595.22
2023-01-22T22:01:04.601Z,100590.22
2023-01-22T22:03:32.549Z,100595.19
2023-01-22T22:06:01.945Z,100583.84
2023-01-22T22:08:29.561Z,100588.81
2023-01-22T22:10:56.370Z,100590.00
2023-01-22T22:13:26.599Z,100596.59
2023-01-22T22:15:53.348Z,100597.22
2023-01-22T22:18:20.500Z,100586.84
2023-01-22T22:20:49.526Z,100595.59
2023-01-22T22:23:16.381Z,100587.81
2023-01-22T22:25:47.431Z,100593.22
2023-01-22T22:28:14.622Z,100607.97
2023-01-22T22:30:41.486Z,100604.56
2023-01-22T22:33:08.374Z,100608.34
2023-01-22T22:35:35.224Z,100616.50
2023-01-22T22:38:02.082Z,100619.06
2023-01-22T22:40:29.485Z,100626.28
2023-01-22T22:42:56.273Z,100633.81
2023-01-22T22:45:23.186Z,100634.03
2023-01-22T22:47:52.103Z,100636.81
2023-01-22T22:50:20.883Z,100641.00
2023-01-22T22:52:47.819Z,100629.25
2023-01-22T22:55:15.734Z,100633.81
2023-01-22T22:57:42.451Z,100636.19
2023-01-22T23:00:12.848Z,100633.19
2023-01-22T23:02:41.015Z,100632.03
2023-01-22T23:05:08.346Z,100622.66
2023-01-22T23:07:37.005Z,100614.69
2023-01-22T23:10:04.321Z,100622.25
2023-01-22T23:12:32.591Z,100621.09
2023-01-22T23:14:59.490Z,100620.88
2023-01-22T23:17:29.453Z,100618.06
2023-01-22T23:19:58.032Z,100617.91
2023-01-22T23:22:26.395Z,100619.06
2023-01-22T23:24:54.016Z,100617.91
2023-01-22T23:27:21.519Z,100614.69
2023-01-22T23:29:48.608Z,100605.75
2023-01-22T23:32:15.445Z,100605.94
2023-01-22T23:34:42.272Z,100604.75
2023-01-22T23:37:09.207Z,100611.91
2023-01-22T23:39:37.482Z,100605.94
2023-01-22T23:42:04.499Z,100610.72
2023-01-22T23:44:32.000Z,100615.69
2023-01-22T23:46:58.779Z,100611.53
2023-01-22T23:49:25.962Z,100613.72
2023-01-22T23:51:56.390Z,100620.88
2023-01-22T23:54:24.980Z,100620.88
2023-01-22T23:56:52.609Z,100625.03
2023-01-22T23:59:20.980Z,100610.75
